Weather observations for the past three days for
Albert Lea, Albert Lea Municipal Airport
Imperial (Metric)
Date Time (cdt) Wind (mph) Vis. (mi.) Weather Sky Cond. Temperature (ºF) Relative Humidity Wind Chill (°F) Heat Index (°F) Pressure Precipitation (in)
Air Dwpt 6 hour altimeter (in) sea level (mb) 1 hr 3 hr 6 hr
Max. Min.
04 12:55 NW 13 G 20 10.00 Mostly Cloudy FEW150 BKN180 65.3 32.9 66 56.1 30% 29.54 0.0
04 12:35 NW 13 G 26 10.00 Mostly Cloudy SCT150 BKN180 64 32.7 31% 29.55 0.0
04 12:15 NW 20 G 26 10.00 Partly Cloudy FEW160 SCT180 65.5 32 29% 29.54 0.0
04 11:55 NW 12 G 22 10.00 A Few Clouds FEW340 64.9 31.8 29% 29.53 0.0
04 11:35 NW 14 G 23 10.00 A Few Clouds FEW390 64.4 31.8 30% 29.53 0.0
04 11:15 NW 14 G 20 10.00 Fair CLR 64.6 32.4 30% 29.53 0.0
04 10:55 NW 15 G 23 10.00 Fair CLR 64.2 37.6 37% 29.53 0.0
04 10:35 NW 13 G 21 10.00 Fair CLR 64.8 39.4 39% 29.52 0.0
04 10:15 NW 15 G 22 10.00 Fair CLR 64.2 39.4 40% 29.52 0.0
04 09:55 NW 10 G 21 10.00 Fair CLR 64 40.3 42% 29.52 0.0
04 09:35 NW 13 G 24 10.00 Fair CLR 64.2 39.4 40% 29.52 0.0
04 09:15 W 16 G 22 10.00 Fair CLR 65.7 38.7 37% 29.51 0.0
04 08:55 W 15 G 22 10.00 Fair CLR 64.4 37.8 37% 29.51 0.0
04 08:35 SW 15 G 21 10.00 A Few Clouds FEW100 63.5 37.2 38% 29.49 0.0
04 08:15 SW 9 G 18 10.00 Partly Cloudy SCT100 62.6 37.2 39% 29.49 0.0
04 07:55 SW 13 9.00 Partly Cloudy SCT110 59.9 37.2 43% 29.49 0.0
04 07:35 SW 13 9.00 A Few Clouds FEW220 58.3 36.7 45% 29.49 0.0
04 07:15 SW 14 G 21 9.00 Fair CLR 56.7 35.6 45% 29.49 0.0
04 06:55 SW 13 9.00 Fair CLR 55.4 35.2 55.4 52.3 47% 29.49 0.0
04 06:35 SW 15 10.00 Fair CLR 55.2 35.1 47% 29.49 0.0
04 06:15 SW 13 G 21 10.00 Fair CLR 55 34.7 46% 29.49 0.0
04 05:55 SW 10 10.00 Partly Cloudy SCT340 54.3 34.2 47% 29.51 0.0
04 05:35 SW 13 G 22 10.00 A Few Clouds FEW280 54.3 34.2 47% 29.51 0.0
04 05:15 SW 12 10.00 A Few Clouds FEW350 53.8 34.5 48% 29.52 0.0
04 04:55 SW 12 10.00 Fair CLR 53.8 34.5 48% 29.53 0.0
04 04:35 SW 14 10.00 Fair CLR 53.8 34.5 48% 29.53 0.0
04 04:15 SW 14 G 21 10.00 Fair CLR 54.1 34.2 47% 29.54 0.0
04 03:55 SW 12 10.00 Fair CLR 54.7 34.2 46% 29.54 0.0
04 03:35 SW 9 10.00 Fair CLR 54.3 34.3 47% 29.55 0.0
04 03:15 SW 10 10.00 Fair CLR 54.5 33.8 46% 29.56 0.0
04 02:55 SW 7 10.00 Partly Cloudy SCT340 53.4 34.7 49% 29.57 0.0
04 02:35 SW 7 10.00 A Few Clouds FEW350 52.7 35.6 52% 29.58 0.0
04 02:15 SW 6 10.00 Fair CLR 52.5 36.1 54% 29.59 0.0
04 01:55 SW 7 10.00 Fair CLR 52.7 36.5 54% 29.6 0.0
04 01:35 S 7 10.00 Fair CLR 53.1 36.5 54% 29.6 0.0
04 01:15 SW 6 10.00 Fair CLR 52.7 37 55% 29.62 0.0
04 00:55 SW 5 10.00 A Few Clouds FEW340 52.9 38.3 68.9 52.7 58% 29.63 0.0
04 00:35 SW 5 10.00 Partly Cloudy SCT340 53.2 38.3 57% 29.64 0.0
04 00:15 SW 6 10.00 Fair CLR 53.8 39.4 58% 29.64 0.0
03 23:55 SW 6 10.00 Fair CLR 54.3 39.4 57% 29.65 0.0
03 23:35 SW 6 10.00 Fair CLR 53.1 44.1 72% 29.66 0.0
03 23:15 SW 7 10.00 Fair CLR 53.6 42.8 67% 29.67 0.0
03 22:55 SW 6 10.00 Fair CLR 53.1 44.8 74% 29.68 0.0
03 22:35 SW 5 10.00 Fair CLR 54.5 43 65% 29.68 0.0
03 22:15 SW 6 10.00 Fair CLR 52.9 43 69% 29.69 0.0
03 21:55 SW 5 10.00 A Few Clouds FEW310 55.6 43.3 64% 29.69 0.0
03 21:35 SW 3 10.00 Fair CLR 56.5 35.2 45% 29.69 0.0
03 21:15 Calm 10.00 Fair CLR 58.1 32.2 38% 29.69 0.0
03 20:55 W 3 9.00 Fair CLR 62.1 30.2 30% 29.69 0.0
03 20:35 W 5 10.00 Fair CLR 63.9 30.2 28% 29.69 0.0
03 20:15 W 6 10.00 Fair CLR 65.3 31.1 28% 29.7 0.0
03 19:55 W 6 10.00 Fair CLR 67.1 30.6 26% 29.7 0.0
03 19:35 W 8 10.00 Fair CLR 67.8 30.7 25% 29.7 0.0
03 19:15 W 8 10.00 Fair CLR 68.5 30.2 24% 29.7 0.0
03 19:05 W 14 10.00 Fair CLR 68.7 30.7 24% 29.7 0.0
03 18:35 W 12 G 18 10.00 Fair CLR 69.4 31.8 25% 29.71 0.0
03 18:15 W 13 G 18 10.00 Fair CLR 69.8 31.1 24% 29.71 0.0
03 17:55 W 9 10.00 Fair CLR 70.5 31.3 23% 29.7 0.0
03 17:35 NW 15 10.00 Fair CLR 70.3 31.6 24% 29.71 0.0
03 17:15 W 12 G 22 10.00 Fair CLR 70.5 32 24% 29.7 0.0
03 16:55 NW 8 G 18 10.00 Fair CLR 71.1 32.5 24% 29.7 0.0
03 16:35 NW 9 10.00 Fair CLR 71.1 31.5 23% 29.71 0.0
03 16:15 NW 13 G 20 10.00 Fair CLR 70.9 30.7 23% 29.71 0.0
03 15:55 NW 12 G 23 10.00 Fair CLR 71.1 30.4 22% 29.72 0.0
03 15:35 NW 15 G 24 10.00 Fair CLR 70.2 30 23% 29.72 0.0
03 15:15 NW 14 G 23 10.00 Fair CLR 70.3 30.4 23% 29.72 0.0
03 14:55 NW 13 G 26 10.00 Fair CLR 69.8 30.6 23% 29.73 0.0
03 14:35 NW 14 G 23 10.00 Fair CLR 70 30.9 23% 29.73 0.0
03 14:15 NW 12 G 22 10.00 Fair CLR 69.6 31.1 24% 29.73 0.0
03 13:55 NW 14 G 21 10.00 Fair CLR 69.6 32.5 25% 29.73 0.0
03 13:35 NW 15 G 23 10.00 A Few Clouds FEW350 68.9 33.8 27% 29.73 0.0
03 13:15 N 16 G 22 10.00 Fair CLR 68.7 31.3 25% 29.74 0.0
03 12:55 NW 16 G 22 10.00 A Few Clouds FEW370 68.2 33.4 68.5 51.3 28% 29.74 0.0
03 12:35 NW 14 G 22 10.00 Fair CLR 67.8 34.7 29% 29.74 0.0
03 12:15 NW 17 G 24 10.00 Fair CLR 67.5 34.9 30% 29.75 0.0
03 11:55 N 18 G 23 10.00 Fair CLR 66 35.4 32% 29.75 0.0
03 11:35 N 14 G 30 10.00 Fair CLR 66 35.8 33% 29.75 0.0
03 11:15 NW 17 G 26 10.00 Fair CLR 64.8 36 34% 29.75 0.0
03 10:55 NW 14 G 25 10.00 Fair CLR 62.8 37.4 39% 29.74 0.0
03 10:35 NW 12 G 23 10.00 Fair CLR 61.9 37.6 41% 29.74 0.0
03 10:15 NW 16 G 21 10.00 Fair CLR 60.6 37.8 43% 29.73 0.0
03 09:55 NW 13 G 20 10.00 Fair CLR 58.8 38.3 47% 29.73 0.0
03 09:35 NW 15 G 20 10.00 Fair CLR 58.1 38.5 48% 29.73 0.0
03 09:15 NW 10 10.00 Fair CLR 56.8 37.9 49% 29.72 0.0
03 08:55 W 9 10.00 Fair CLR 56.5 36.5 47% 29.72 0.0
03 08:35 W 9 10.00 A Few Clouds FEW310 55.6 35.6 47% 29.72 0.0
03 08:15 SW 9 10.00 Fair CLR 54.5 34.2 46% 29.72 0.0
03 07:55 SW 10 10.00 Fair CLR 53.2 34 48% 29.71 0.0
03 07:35 SW 8 10.00 Fair CLR 52.5 34.7 51% 29.71 0.0
03 07:15 S 8 10.00 Fair CLR 51.6 33.6 50% 29.71 0.0
03 06:55 SW 10 9.00 Fair CLR 51.3 32.9 57.9 51.3 50% 29.71 0.0
03 06:35 SW 10 9.00 Fair CLR 51.4 32.9 49% 29.71 0.0
03 06:15 SW 12 10.00 Fair CLR 52 32.2 47% 29.7 0.0
03 05:55 S 12 10.00 Fair CLR 52.9 32 45% 29.71 0.0
03 05:35 S 15 G 21 10.00 Fair CLR 53.1 32 45% 29.71 0.0
03 05:15 S 15 10.00 Fair CLR 53.1 31.6 44% 29.71 0.0
03 04:55 S 14 G 24 10.00 Fair CLR 54 31.5 42% 29.72 0.0
03 04:35 S 13 G 21 10.00 A Few Clouds FEW140 54.5 31.6 42% 29.72 0.0
03 04:15 S 14 G 23 10.00 Partly Cloudy SCT140 54.5 33.4 45% 29.73 0.0
03 03:55 S 16 G 24 10.00 Mostly Cloudy SCT090 BKN120 54.7 36.3 50% 29.74 0.0
03 03:35 S 17 G 25 10.00 Overcast BKN090 OVC120 56.1 34.5 44% 29.74 0.0
03 03:15 S 17 G 26 10.00 Overcast SCT100 OVC120 56.5 34.9 44% 29.75 0.0
03 02:55 SW 14 G 24 10.00 Light Rain FEW070 BKN120 OVC140 56.7 33.8 42% 29.79 0.0
03 02:35 S 12 10.00 Overcast SCT070 OVC110 57 32.9 40% 29.79 0.0
03 02:15 SW 13 G 20 10.00 Overcast FEW060 SCT075 OVC100 56.8 30.4 37% 29.82 0.0
03 01:55 S 16 G 20 10.00 Overcast SCT065 BKN080 OVC100 57.6 29.5 34% 29.82 0.0
03 01:35 SW 9 10.00 Overcast FEW065 BKN100 OVC120 56.7 32.4 40% 29.83 0.0
03 01:15 SW 15 10.00 Light Rain FEW042 BKN070 OVC085 57.2 30.4 36% 29.84 0.0
03 00:55 SW 7 10.00 Light Rain FEW036 SCT055 BKN070 BKN090 OVC100 58.1 30 63.1 57.9 34% 29.84 0.0
03 00:35 SW 14 10.00 Overcast FEW075 OVC100 58.1 29.5 34% 29.84 0.0
03 00:15 S 14 10.00 Overcast FEW075 OVC100 57.9 30 35% 29.83 0.0
02 23:55 S 10 10.00 Overcast FEW065 OVC095 58.3 30.2 34% 29.84 0.0
02 23:35 SW 9 G 16 10.00 Overcast FEW065 OVC090 58.8 29.7 33% 29.85 0.0
02 23:15 SW 10 10.00 Overcast OVC085 59 30.7 34% 29.86 0.0
02 22:55 SW 9 10.00 Mostly Cloudy BKN100 BKN130 59.4 30.9 34% 29.85 0.0
02 22:35 SW 5 10.00 Mostly Cloudy SCT100 BKN130 58.8 32.5 37% 29.86 0.0
02 22:15 S 7 10.00 Overcast OVC095 59.9 30.9 33% 29.87 0.0
02 21:55 SW 7 10.00 Overcast BKN090 OVC110 60.1 30.9 33% 29.88 0.0
02 21:35 SW 8 10.00 Overcast BKN100 OVC120 59.2 33.3 38% 29.89 0.0
02 21:15 SW 8 10.00 Overcast OVC100 59.4 33.3 38% 29.89 0.0
02 20:55 SW 6 10.00 Overcast OVC110 60.1 32.5 36% 29.89 0.0
02 20:35 SW 7 10.00 Overcast OVC110 60.4 32.4 35% 29.89 0.0
02 20:15 SW 7 10.00 Overcast OVC110 61.3 30.4 31% 29.89 0.0
02 19:55 SW 5 10.00 Overcast OVC130 62.1 30 30% 29.89 0.0
02 19:35 SW 8 10.00 Overcast OVC120 62.4 28.9 28% 29.9 0.0
02 19:15 SW 7 10.00 Overcast OVC130 62.8 28.9 28% 29.9 0.0
02 18:55 SW 7 10.00 Overcast OVC140 63.5 29.3 64.6 57.7 28% 29.91 0.0
02 18:35 W 7 10.00 Mostly Cloudy BKN140 BKN170 63.1 29.5 28% 29.91 0.0
02 18:15 W 9 10.00 Partly Cloudy FEW160 SCT190 63.1 28.6 27% 29.91 0.0
02 17:55 W 8 10.00 Mostly Cloudy BKN160 BKN190 63.7 28.8 27% 29.92 0.0
02 17:35 W 7 10.00 A Few Clouds FEW150 64 27.9 26% 29.93 0.0
02 17:15 SW 9 10.00 Fair CLR 63.3 27.3 26% 29.93 0.0
02 16:55 W 8 G 18 10.00 A Few Clouds FEW100 64 27.9 26% 29.94 0.0
02 16:35 W 9 G 17 10.00 Partly Cloudy SCT100 63.9 27.5 25% 29.95 0.0
02 16:15 W 12 G 18 10.00 A Few Clouds FEW080 63.7 27.1 25% 29.95 0.0
02 15:55 W 12 10.00 Partly Cloudy FEW080 SCT095 63.1 27.3 26% 29.97 0.0
02 15:35 SW 10 10.00 Fair CLR 62.8 27.1 26% 29.97 0.0
02 15:15 W 8 10.00 Fair CLR 62.4 26.1 25% 29.98 0.0
02 14:55 W 9 G 18 10.00 A Few Clouds FEW380 61.9 25.3 25% 29.99 0.0
02 14:35 W 14 10.00 Fair CLR 61.5 25.3 25% 30 0.0
02 14:15 SW 8 10.00 Fair CLR 61 24.8 25% 30.01 0.0
02 13:55 W 9 10.00 Fair CLR 59.4 24.4 26% 30.02 0.0
02 13:35 W 13 G 18 10.00 A Few Clouds FEW370 59.2 24.3 26% 30.03 0.0
02 13:15 SW 12 10.00 Fair CLR 57.9 23.5 27% 30.03 0.0
02 12:55 SW 7 G 18 10.00 Fair CLR 58.1 23.2 58.1 38.5 26% 30.05 0.0
02 12:35 W 9 10.00 Fair CLR 56.7 22.3 26% 30.06 0.0
02 12:15 SW 9 G 17 10.00 Fair CLR 56.5 23.2 28% 30.06 0.0
02 11:55 W 13 G 21 10.00 Fair CLR 56.1 23.7 29% 30.07 0.0
02 11:35 SW 10 10.00 Fair CLR 54.9 23.7 30% 30.08 0.0
02 11:15 W 12 G 18 10.00 Fair CLR 54.3 23.5 30% 30.08 0.0
02 10:55 NW 10 10.00 Fair CLR 53.2 23.5 31% 30.09 0.0
02 10:35 W 10 10.00 Fair CLR 53.8 25.3 33% 30.09 0.0
02 10:15 W 8 10.00 Fair CLR 52 26.2 37% 30.1 0.0
02 09:55 W 7 10.00 Fair CLR 51.4 27.7 40% 30.1 0.0
02 09:35 W 9 10.00 Fair CLR 51.1 28.2 41% 30.11 0.0
02 09:15 W 8 10.00 Fair CLR 50.2 28.9 44% 30.11 0.0
02 08:55 Vrbl 6 10.00 Fair CLR 48.4 29.3 48% 46 30.11 0.0
02 08:35 W 6 10.00 Fair CLR 46.8 29.3 51% 44 30.11 0.0
02 08:15 W 6 10.00 Fair CLR 45.1 29.1 54% 43 30.11 0.0
02 07:55 W 7 10.00 Fair CLR 43.5 27.9 54% 40 30.11 0.0
02 07:35 W 6 10.00 Fair CLR 42.3 27.9 57% 39 30.1 0.0
02 07:15 W 3 10.00 Fair CLR 40.5 27.7 60% 30.1 0.0
02 06:55 SW 3 9.00 Fair CLR 37.6 26.6 37.6 31.6 65% 30.1 0.0
02 06:35 Calm 8.00 Fair CLR 36.5 26.6 67% 30.1 0.0
02 06:15 SW 3 9.00 Fair CLR 36.7 26.2 66% 30.1 0.0
02 05:55 W 3 10.00 Fair CLR 35.8 25.9 67% 30.1 0.0
02 05:35 W 3 10.00 Fair CLR 34.7 27.7 76% 30.1 0.0
02 05:15 Calm 10.00 Fair CLR 33.8 33.8 100% 30.09 0.0
02 04:55 Calm 10.00 Fair CLR 33.1 33.1 100% 30.09 0.0
02 04:35 Calm 10.00 Fair CLR 33.1 32.4 97% 30.09 0.0
02 04:15 Calm 10.00 Fair CLR 32.4 32.4 100% 30.09 0.0
02 03:55 Calm 10.00 Fair CLR 33.3 33.3 100% 30.09 0.0
02 03:35 Calm 10.00 Fair CLR 33.4 33.4 100% 30.09 0.0
02 03:15 Calm 10.00 Fair CLR 32.9 32.9 100% 30.09 0.0
02 02:55 Calm 10.00 Fair CLR 35.2 34.5 97% 30.09 0.0
02 02:35 Calm 10.00 Fair CLR 35.1 35.1 100% 30.09 0.0
02 02:15 Calm 10.00 Fair CLR 34.7 32.9 93% 30.1 0.0
02 01:55 Calm 10.00 Fair CLR 35.2 31.1 85% 30.1 0.0
02 01:35 Calm 10.00 Fair CLR 35.8 29.8 79% 30.1 0.0
02 01:15 Calm 10.00 Fair CLR 34.9 28.4 77% 30.1 0.0
02 00:55 Calm 10.00 Fair CLR 35.2 29.5 50.2 35.2 80% 30.1 0.0
02 00:35 Calm 10.00 Fair CLR 35.4 30 81% 30.1 0.0
02 00:15 Calm 10.00 Fair CLR 37 32.4 83% 30.1 0.0
01 23:55 Calm 10.00 Fair CLR 37.8 30.4 75% 30.1 0.0
01 23:35 Calm 10.00 Fair CLR 39.2 27.5 63% 30.1 0.0
01 23:15 Calm 10.00 Fair CLR 39 30.7 72% 30.1 0.0
01 22:55 Calm 10.00 Fair CLR 41.5 24.1 50% 30.1 0.0
01 22:35 W 5 10.00 Fair CLR 41.5 25.3 53% 39 30.1 0.0
01 22:15 Calm 10.00 Partly Cloudy SCT075 42.8 29.5 59% 30.1 0.0
01 21:55 Calm 10.00 Overcast OVC075 43.7 26.4 51% 30.09 0.0
01 21:35 N 3 10.00 Overcast OVC075 44.4 24.6 46% 30.09 0.0
01 21:15 N 3 10.00 Mostly Cloudy BKN075 44.8 23.7 44% 30.09 0.0
01 20:55 N 3 10.00 A Few Clouds FEW075 45.7 23.4 41% 30.08 0.0
01 20:35 N 5 10.00 Mostly Cloudy BKN075 46.4 23.4 40% 45 30.07 0.0
01 20:15 N 6 10.00 Overcast OVC075 48 21.9 36% 46 30.07 0.0
01 19:55 NW 8 10.00 Mostly Cloudy BKN075 48.9 20.5 32% 46 30.06 0.0
01 19:35 N 7 10.00 Partly Cloudy SCT075 49.5 20.7 32% 47 30.06 0.0
01 19:15 N 7 10.00 A Few Clouds FEW075 49.5 20.1 31% 47 30.06 0.0
01 18:55 N 10 10.00 Overcast OVC075 50 19.8 53.4 49.3 30% 46 30.06 0.0
01 18:35 N 12 9.00 Mostly Cloudy BKN075 50.7 20.1 30% 30.05 0.0
01 18:15 NW 7 10.00 Mostly Cloudy BKN080 50.7 20.1 30% 30.05 0.0
01 17:55 N 7 10.00 Mostly Cloudy BKN075 50.5 20.7 31% 30.05 0.0
01 17:35 N 12 10.00 Mostly Cloudy BKN070 52 20.8 29% 30.05 0.0
01 17:15 N 8 10.00 Mostly Cloudy BKN070 52 20.5 29% 30.05 0.0
01 16:55 N 10 10.00 Overcast OVC070 51.1 21.2 31% 30.05 0.0
01 16:35 NE 12 10.00 Overcast OVC070 51.1 21.6 31% 30.05 0.0
01 16:15 NE 9 G 18 10.00 Overcast OVC070 51.8 21.7 31% 30.05 0.0
01 15:55 N 15 10.00 Overcast OVC065 52.9 23.2 31% 30.05 0.0
01 15:35 N 10 10.00 Mostly Cloudy BKN070 50.7 21.9 32% 30.05 0.0
01 15:15 Vrbl 5 10.00 Partly Cloudy SCT070 50.5 21.7 32% 30.05 0.0
01 14:55 N 8 10.00 Mostly Cloudy BKN070 51.8 22.3 31% 30.05 0.0
01 14:35 N 14 10.00 Overcast OVC065 51.4 22.5 32% 30.06 0.0
01 14:15 N 13 10.00 Mostly Cloudy BKN065 49.8 22.5 34% 45 30.05 0.0
01 13:55 NE 8 10.00 Mostly Cloudy BKN065 50.2 22.6 34% 30.05 0.0
01 13:35 N 12 10.00 Mostly Cloudy BKN060 51.1 23.4 34% 30.05 0.0
Date Time (cdt) Wind (mph) Vis. (mi.) Weather Sky Cond. Air Dwpt Max. Min. Relative Humidity Wind Chill (°F) Heat Index (°F) altimeter (in) sea level (mb) 1 hr 3 hr 6 hr
6 hour
Temperature (ºF) Pressure Precipitation (in)